createdAt,value
2023-04-26T00:00:14.964Z,99026.97
2023-04-26T00:01:14.698Z,99029.62
2023-04-26T00:02:15.121Z,99029.32
2023-04-26T00:03:15.601Z,99022.84
2023-04-26T00:04:16.096Z,99025.7
2023-04-26T00:05:16.518Z,99021.16
2023-04-26T00:06:16.623Z,99024.22
2023-04-26T00:07:17.970Z,99019.31
2023-04-26T00:08:17.365Z,99024.52
2023-04-26T00:09:17.671Z,99019.88
2023-04-26T00:10:18.196Z,99018.56
2023-04-26T00:11:18.517Z,99020.59
2023-04-26T00:12:19.170Z,99017.61
2023-04-26T00:13:19.192Z,99025.34
2023-04-26T00:14:19.755Z,99023.34
2023-04-26T00:15:20.179Z,99021.72
2023-04-26T00:16:20.386Z,99016.79
2023-04-26T00:17:20.903Z,99021.66
2023-04-26T00:18:21.425Z,99014.27
2023-04-26T00:19:21.630Z,99015.42
2023-04-26T00:20:21.958Z,99014.16
2023-04-26T00:21:22.361Z,99015.22
2023-04-26T00:22:22.882Z,99010.94
2023-04-26T00:23:23.058Z,99014.24
2023-04-26T00:24:23.622Z,99012.26
2023-04-26T00:25:23.943Z,99010.89
2023-04-26T00:26:24.399Z,99016.89
2023-04-26T00:27:24.754Z,99016.11
2023-04-26T00:28:25.079Z,99014.81
2023-04-26T00:29:25.497Z,99017.14
2023-04-26T00:30:25.822Z,99013.74
2023-04-26T00:31:26.701Z,99015.31
2023-04-26T00:32:26.610Z,99012.3
2023-04-26T00:33:26.845Z,99015.62
2023-04-26T00:34:36.240Z,99016.03
2023-04-26T00:35:28.560Z,99013.08
2023-04-26T00:36:29.012Z,99014.69
2023-04-26T00:37:29.440Z,99015.88
2023-04-26T00:38:29.748Z,99016.73
2023-04-26T00:39:30.268Z,99018.77
2023-04-26T00:40:30.827Z,99019.05
2023-04-26T00:41:31.673Z,99018.18
2023-04-26T00:42:31.273Z,99018.27
2023-04-26T00:43:31.621Z,99015.15
2023-04-26T00:44:32.063Z,99010.96
2023-04-26T00:45:32.415Z,99017.7
2023-04-26T00:46:32.883Z,99014.69
2023-04-26T00:47:33.818Z,99015.88
2023-04-26T00:48:34.056Z,99013.05
2023-04-26T00:49:34.149Z,99012.25
2023-04-26T00:50:34.641Z,99016.75
2023-04-26T00:51:36.378Z,99014.61
2023-04-26T00:52:35.482Z,99012.88
2023-04-26T00:53:35.689Z,99013.77
2023-04-26T00:54:35.788Z,99010.27
2023-04-26T00:55:36.650Z,99007.97
2023-04-26T00:56:38.873Z,99009.11
2023-04-26T00:57:37.561Z,99006.55
2023-04-26T00:58:38.077Z,99006.28
2023-04-26T00:59:38.056Z,99003.51
2023-04-26T01:00:37.916Z,99004
2023-04-26T01:01:38.497Z,99002.73
2023-04-26T01:02:39.025Z,99005.56
2023-04-26T01:03:39.125Z,99002.2
2023-04-26T01:04:39.543Z,99002.4
2023-04-26T01:05:39.834Z,99004.07
2023-04-26T01:06:40.792Z,99004.48
2023-04-26T01:07:41.454Z,99003.23
2023-04-26T01:08:41.269Z,99000.09
2023-04-26T01:09:41.143Z,99000.16
2023-04-26T01:10:41.835Z,99001.56
2023-04-26T01:11:43.666Z,98999.17
2023-04-26T01:12:42.468Z,99000.34
2023-04-26T01:13:42.992Z,98998.73
2023-04-26T01:14:44.120Z,99000.02
2023-04-26T01:15:46.784Z,98998.27
2023-04-26T01:16:44.752Z,98998.57
2023-04-26T01:17:46.973Z,98998.06
2023-04-26T01:18:50.864Z,98996.86
2023-04-26T01:19:49.616Z,98995.62
2023-04-26T01:20:48.754Z,98994.59
2023-04-26T01:21:49.229Z,98994.2
2023-04-26T01:22:49.541Z,98993.8
2023-04-26T01:23:50.535Z,98995.2
2023-04-26T01:24:51.622Z,98993.16
2023-04-26T01:25:50.645Z,98993.09
2023-04-26T01:26:51.259Z,98989.39
2023-04-26T01:27:51.580Z,98996.47
2023-04-26T01:28:52.031Z,98992.23
2023-04-26T01:29:52.144Z,98989.94
2023-04-26T01:30:52.697Z,98989.75
2023-04-26T01:31:52.859Z,98988.92
2023-04-26T01:32:53.279Z,98984.8
2023-04-26T01:33:53.656Z,98986.88
2023-04-26T01:34:53.977Z,98986.17
2023-04-26T01:35:54.291Z,98985.95
2023-04-26T01:36:54.715Z,98987.11
2023-04-26T01:37:55.127Z,98983.3
2023-04-26T01:38:55.342Z,98981.41
2023-04-26T01:39:55.745Z,98981.31
2023-04-26T01:40:56.166Z,98982.88
2023-04-26T01:41:57.704Z,98981.05
2023-04-26T01:42:56.996Z,98983.25
2023-04-26T01:43:57.161Z,98986.7
2023-04-26T01:44:57.740Z,98979.59
2023-04-26T01:45:58.069Z,98981.2
2023-04-26T01:46:58.366Z,98978.85
2023-04-26T01:47:58.803Z,98978.67
2023-04-26T01:48:59.013Z,98976.55
2023-04-26T01:49:59.403Z,98975.64
2023-04-26T01:50:59.830Z,98980.89
2023-04-26T01:52:01.349Z,98977.88
2023-04-26T01:53:00.650Z,98978.94
2023-04-26T01:54:01.082Z,98979.23
2023-04-26T01:55:01.277Z,98976.84
2023-04-26T01:56:02.017Z,98978.41
2023-04-26T01:57:02.104Z,98975.98
2023-04-26T01:58:03.051Z,98978.27
2023-04-26T01:59:02.832Z,98980.18
2023-04-26T02:00:03.355Z,98978.38
2023-04-26T02:01:08.832Z,98976.73
2023-04-26T02:02:06.385Z,98974.75
2023-04-26T02:03:06.953Z,98976.98
2023-04-26T02:04:07.387Z,98972.8
2023-04-26T02:05:11.140Z,98971.44
2023-04-26T02:06:08.731Z,98971.34
2023-04-26T02:07:09.040Z,98977.12
2023-04-26T02:08:09.771Z,98971.39
2023-04-26T02:09:09.762Z,98968.95
2023-04-26T02:10:10.609Z,98967.3
2023-04-26T02:11:10.324Z,98965.73
2023-04-26T02:12:10.905Z,98969.86
2023-04-26T02:13:11.174Z,98967.69
2023-04-26T02:14:11.742Z,98964.73
2023-04-26T02:15:12.049Z,98960.03
2023-04-26T02:16:12.414Z,98960.94
2023-04-26T02:17:13.245Z,98963.61
2023-04-26T02:18:13.682Z,98961.56
2023-04-26T02:19:14.028Z,98954.27
2023-04-26T02:20:14.345Z,98955.05
2023-04-26T02:21:17.329Z,98956.98
2023-04-26T02:22:15.080Z,98959.11
2023-04-26T02:23:15.493Z,98959.16
2023-04-26T02:24:15.804Z,98957.91
2023-04-26T02:25:16.116Z,98956.95
2023-04-26T02:26:16.531Z,98952.7
2023-04-26T02:27:16.737Z,98950.41
2023-04-26T02:28:17.262Z,98953.08
2023-04-26T02:29:17.481Z,98951.27
2023-04-26T02:30:17.915Z,98953.11
2023-04-26T02:31:18.351Z,98953.2
2023-04-26T02:32:18.697Z,98952.55
2023-04-26T02:33:19.029Z,98950.25
2023-04-26T02:34:19.458Z,98952.66
2023-04-26T02:35:19.766Z,98950.09
2023-04-26T02:36:19.933Z,98952.07
2023-04-26T02:37:20.505Z,98949.01
2023-04-26T02:38:20.926Z,98947.45
2023-04-26T02:39:21.071Z,98950.94
2023-04-26T02:40:21.959Z,98949.81
2023-04-26T02:41:22.168Z,98953.12
2023-04-26T02:42:22.124Z,98956.39
2023-04-26T02:43:22.689Z,98959.69
2023-04-26T02:44:23.008Z,98955.55
2023-04-26T02:45:23.423Z,98953.22
2023-04-26T02:46:23.603Z,98951.76
2023-04-26T02:47:24.193Z,98948.92
2023-04-26T02:48:24.615Z,98950.91
2023-04-26T02:49:24.726Z,98948.7
2023-04-26T02:50:25.082Z,98951
2023-04-26T02:51:25.600Z,98950.09
2023-04-26T02:52:25.926Z,98947.04
2023-04-26T02:53:26.236Z,98952.89
2023-04-26T02:54:26.481Z,98948.44
2023-04-26T02:55:26.928Z,98951.3
2023-04-26T02:56:27.283Z,98947.98
2023-04-26T02:57:27.650Z,98953.6
2023-04-26T02:58:28.144Z,98951.27
2023-04-26T02:59:28.244Z,98952.33
2023-04-26T03:00:28.592Z,98952.09
2023-04-26T03:01:29.030Z,98951.77
2023-04-26T03:02:29.511Z,98951.23
2023-04-26T03:03:30.216Z,98953.11
2023-04-26T03:04:33.581Z,98957.4
2023-04-26T03:05:31.019Z,98955.73
2023-04-26T03:06:31.432Z,98950.68
2023-04-26T03:07:31.850Z,98948.25
2023-04-26T03:08:32.981Z,98948.44
2023-04-26T03:09:32.520Z,98950.28
2023-04-26T03:10:33.006Z,98953.61
2023-04-26T03:11:33.162Z,98950.21
2023-04-26T03:12:33.534Z,98949.5
2023-04-26T03:13:34.154Z,98949.62
2023-04-26T03:14:34.464Z,98950.98
2023-04-26T03:15:34.683Z,98945.47
2023-04-26T03:16:42.088Z,98945.89
2023-04-26T03:17:39.518Z,98950.44
2023-04-26T03:18:39.965Z,98953.03
2023-04-26T03:19:40.434Z,98954
2023-04-26T03:20:40.644Z,98954.44
2023-04-26T03:21:40.997Z,98956.55
2023-04-26T03:22:41.281Z,98953.75
2023-04-26T03:23:41.807Z,98949.59
2023-04-26T03:24:43.579Z,98947.55
2023-04-26T03:25:42.437Z,98949.27
2023-04-26T03:26:42.679Z,98948.17
2023-04-26T03:27:43.204Z,98948.06
2023-04-26T03:28:43.605Z,98943.1
2023-04-26T03:29:44.329Z,98941.42
2023-04-26T03:30:44.304Z,98943.78
2023-04-26T03:31:44.705Z,98943.89
2023-04-26T03:32:45.054Z,98939.33
2023-04-26T03:33:45.446Z,98942.92
2023-04-26T03:34:45.691Z,98947.25
2023-04-26T03:35:45.968Z,98946.11
2023-04-26T03:36:46.400Z,98943.41
2023-04-26T03:37:46.810Z,98944.94
2023-04-26T03:38:47.213Z,98942.59
2023-04-26T03:39:47.404Z,98936.38
2023-04-26T03:40:47.882Z,98937.44
2023-04-26T03:41:48.480Z,98937.11
2023-04-26T03:42:48.574Z,98940.56
2023-04-26T03:43:49.400Z,98937.59
2023-04-26T03:44:49.304Z,98944.18
2023-04-26T03:45:50.339Z,98945.98
2023-04-26T03:46:50.153Z,98948.19
2023-04-26T03:47:50.436Z,98944.28
2023-04-26T03:48:51.000Z,98943.58
2023-04-26T03:49:51.119Z,98947.91
2023-04-26T03:50:51.397Z,98950.75
2023-04-26T03:51:51.805Z,98952.28
2023-04-26T03:52:52.268Z,98957.12
2023-04-26T03:53:52.577Z,98948.51
2023-04-26T03:54:52.969Z,98947.7
2023-04-26T03:55:53.374Z,98949.88
2023-04-26T03:56:53.704Z,98946.55
2023-04-26T03:57:53.894Z,98943.71
2023-04-26T03:58:54.519Z,98940.19
2023-04-26T03:59:54.975Z,98941.59
2023-04-26T04:00:57.907Z,98939.46
2023-04-26T04:01:55.565Z,98936.64
2023-04-26T04:02:55.882Z,98937.62
2023-04-26T04:03:56.465Z,98935.31
2023-04-26T04:04:56.840Z,98937.67
2023-04-26T04:05:57.019Z,98940.91
2023-04-26T04:06:57.234Z,98943.56
2023-04-26T04:07:57.688Z,98946.34
2023-04-26T04:08:58.467Z,98948.09
2023-04-26T04:09:58.710Z,98951.31
2023-04-26T04:10:58.750Z,98949.48
2023-04-26T04:11:59.108Z,98952.59
2023-04-26T04:12:59.742Z,98952.09
2023-04-26T04:14:00.166Z,98950.62
2023-04-26T04:15:00.496Z,98951.22
2023-04-26T04:16:00.538Z,98952.92
2023-04-26T04:17:00.966Z,98950.98
2023-04-26T04:18:01.482Z,98953.58
2023-04-26T04:19:01.762Z,98958.22
2023-04-26T04:20:03.055Z,98952.75
2023-04-26T04:21:02.549Z,98957.95
2023-04-26T04:22:02.756Z,98956.89
2023-04-26T04:23:03.188Z,98959.81
2023-04-26T04:24:04.204Z,98962.14
2023-04-26T04:25:04.411Z,98959.61
2023-04-26T04:26:04.430Z,98955.7
2023-04-26T04:27:04.879Z,98959.02
2023-04-26T04:28:05.351Z,98962.76
2023-04-26T04:29:05.569Z,98966.3
2023-04-26T04:30:07.215Z,98962.45
2023-04-26T04:31:06.433Z,98963.98
2023-04-26T04:32:06.712Z,98964.55
2023-04-26T04:33:07.048Z,98962.98
2023-04-26T04:34:07.447Z,98961.97
2023-04-26T04:35:08.374Z,98963.72
2023-04-26T04:36:08.794Z,98966.05
2023-04-26T04:37:08.593Z,98966.44
2023-04-26T04:38:08.900Z,98964.22
2023-04-26T04:39:09.322Z,98964.67
2023-04-26T04:40:11.750Z,98966.52
2023-04-26T04:41:10.045Z,98967.9
2023-04-26T04:42:10.407Z,98968.05
2023-04-26T04:43:10.878Z,98966.12
2023-04-26T04:44:11.198Z,98968.92
2023-04-26T04:45:12.021Z,98968.91
2023-04-26T04:46:12.809Z,98970.64
2023-04-26T04:47:12.597Z,98972.14
2023-04-26T04:48:12.743Z,98972.41
2023-04-26T04:49:13.181Z,98974.56
2023-04-26T04:50:13.701Z,98972.8
2023-04-26T04:51:14.005Z,98974.99
2023-04-26T04:52:15.346Z,98977.41
2023-04-26T04:53:14.734Z,98977.02
2023-04-26T04:54:16.862Z,98975.38
2023-04-26T04:55:15.426Z,98975.34
2023-04-26T04:56:15.889Z,98976.44
2023-04-26T04:57:16.094Z,98979.48
2023-04-26T04:58:16.578Z,98979.3
2023-04-26T04:59:17.255Z,98974.73
2023-04-26T05:00:18.257Z,98972.37
2023-04-26T05:01:17.606Z,98971.23
2023-04-26T05:02:18.301Z,98973.58
2023-04-26T05:03:18.648Z,98975.67
2023-04-26T05:04:19.076Z,98975.69
2023-04-26T05:05:19.692Z,98975.78
2023-04-26T05:06:20.326Z,98974.25
2023-04-26T05:07:20.076Z,98973.3
2023-04-26T05:08:20.614Z,98974.11
2023-04-26T05:09:21.601Z,98969.77
2023-04-26T05:10:21.106Z,98968.09
2023-04-26T05:11:21.718Z,98967.31
2023-04-26T05:12:22.065Z,98967.05
2023-04-26T05:13:22.464Z,98968.89
2023-04-26T05:14:22.884Z,98970.22
2023-04-26T05:15:23.180Z,98971.02
2023-04-26T05:16:23.721Z,98971.84
2023-04-26T05:17:24.052Z,98971.36
2023-04-26T05:18:24.434Z,98972.73
2023-04-26T05:19:24.996Z,98973.64
2023-04-26T05:20:25.783Z,98978.59
2023-04-26T05:21:25.679Z,98978.23
2023-04-26T05:22:27.166Z,98980.14
2023-04-26T05:23:26.406Z,98981.48
2023-04-26T05:24:30.219Z,98981.66
2023-04-26T05:25:27.658Z,98978.92
2023-04-26T05:26:28.056Z,98982.7
2023-04-26T05:27:31.450Z,98981.58
2023-04-26T05:28:28.998Z,98985.47
2023-04-26T05:29:32.276Z,98981.14
2023-04-26T05:30:29.641Z,98983.06
2023-04-26T05:31:30.194Z,98982.72
2023-04-26T05:32:30.558Z,98983.4
2023-04-26T05:33:30.985Z,98983.98
2023-04-26T05:34:31.345Z,98984.53
2023-04-26T05:35:31.813Z,98984.84
2023-04-26T05:36:32.258Z,98987.58
2023-04-26T05:37:32.547Z,98989.84
2023-04-26T05:38:32.872Z,98989.86
2023-04-26T05:39:33.378Z,98993.92
2023-04-26T05:40:33.817Z,98988.84
2023-04-26T05:41:34.095Z,98992.78
2023-04-26T05:42:34.634Z,98990.33
2023-04-26T05:43:34.954Z,98987.93
2023-04-26T05:44:35.307Z,98994.94
2023-04-26T05:45:35.937Z,98995.56
2023-04-26T05:46:36.398Z,98993.69
2023-04-26T05:47:36.745Z,98989.22
2023-04-26T05:48:36.916Z,98988.8
2023-04-26T05:49:37.458Z,98985.91
2023-04-26T05:50:39.985Z,98986.94
2023-04-26T05:51:38.281Z,98988.79
2023-04-26T05:52:38.683Z,98993.33
2023-04-26T05:53:39.093Z,98993.05
2023-04-26T05:54:39.464Z,98995.59
2023-04-26T05:55:41.057Z,98989.11
2023-04-26T05:56:40.198Z,98989.35
2023-04-26T05:57:40.904Z,98986.79
2023-04-26T05:58:41.386Z,98986.28
2023-04-26T05:59:41.594Z,98986.67
2023-04-26T06:00:42.730Z,98983.44
2023-04-26T06:01:42.544Z,98984.06
2023-04-26T06:02:43.048Z,98982.77
2023-04-26T06:03:45.416Z,98986.5
2023-04-26T06:04:43.738Z,98988.17
2023-04-26T06:05:44.237Z,98987.8
2023-04-26T06:06:44.606Z,98993.86
2023-04-26T06:07:44.933Z,98991.92
2023-04-26T06:08:45.557Z,98990.14
2023-04-26T06:09:46.111Z,98992.3
2023-04-26T06:10:46.384Z,98994.84
2023-04-26T06:11:46.691Z,98994.58
2023-04-26T06:12:47.425Z,98993.95
2023-04-26T06:13:47.532Z,98991.91
2023-04-26T06:14:47.943Z,98995.98
2023-04-26T06:15:48.577Z,98993.92
2023-04-26T06:16:48.856Z,98992.47
2023-04-26T06:17:49.313Z,98996.09
2023-04-26T06:18:50.328Z,98993.35
2023-04-26T06:19:50.951Z,98995.95
2023-04-26T06:20:52.080Z,98995.29
2023-04-26T06:21:52.192Z,98995.05
2023-04-26T06:22:52.506Z,98991.66
2023-04-26T06:23:53.318Z,98995.33
2023-04-26T06:24:53.532Z,98993.8
2023-04-26T06:25:53.851Z,98990.98
2023-04-26T06:26:54.211Z,98991.16
2023-04-26T06:27:54.681Z,98986.98
2023-04-26T06:28:55.098Z,98980.7
2023-04-26T06:29:55.454Z,98981.59
2023-04-26T06:30:56.114Z,98986.38
2023-04-26T06:31:56.442Z,98981.89
2023-04-26T06:32:56.949Z,98983.05
2023-04-26T06:33:57.384Z,98980.2
2023-04-26T06:34:57.693Z,98979.52
2023-04-26T06:35:58.221Z,98976.76
2023-04-26T06:36:58.747Z,98978.32
2023-04-26T06:37:59.145Z,98980.84
2023-04-26T06:38:59.511Z,98981.25
2023-04-26T06:39:59.892Z,98979.33
2023-04-26T06:41:00.409Z,98983.23
2023-04-26T06:42:01.230Z,98978.55
2023-04-26T06:43:01.238Z,98979.23
2023-04-26T06:44:01.641Z,98981.53
2023-04-26T06:45:02.264Z,98978.34
2023-04-26T06:46:03.130Z,98980.09
2023-04-26T06:47:03.009Z,98984.67
2023-04-26T06:48:04.243Z,98982.05
2023-04-26T06:49:03.839Z,98981.61
2023-04-26T06:50:05.378Z,98980.91
2023-04-26T06:51:08.243Z,98976.86
2023-04-26T06:52:05.807Z,98980.04
2023-04-26T06:53:06.120Z,98982.69
2023-04-26T06:54:06.729Z,98983.8
2023-04-26T06:55:08.280Z,98984.75
2023-04-26T06:56:08.037Z,98985.77
2023-04-26T06:57:08.117Z,98984.97
2023-04-26T06:58:08.344Z,98984.14
2023-04-26T06:59:08.744Z,98986.22
2023-04-26T07:00:10.564Z,98984.58
2023-04-26T07:01:10.409Z,98985.92
2023-04-26T07:02:10.306Z,98985.2
2023-04-26T07:03:10.686Z,98987.14
2023-04-26T07:04:11.616Z,98988.62
2023-04-26T07:05:12.428Z,98990.09
2023-04-26T07:06:12.753Z,98989.01
2023-04-26T07:07:13.841Z,98990.95
2023-04-26T07:08:13.585Z,98989.15
2023-04-26T07:09:14.160Z,98991.56
2023-04-26T07:10:15.183Z,98987.47
2023-04-26T07:11:15.053Z,98989.41
2023-04-26T07:12:15.353Z,98991.04
2023-04-26T07:13:15.781Z,98989.52
2023-04-26T07:14:16.288Z,98990.3
2023-04-26T07:15:16.733Z,98989.59
2023-04-26T07:16:17.652Z,98992.64
2023-04-26T07:17:17.589Z,98990.88
2023-04-26T07:18:18.053Z,98993.72
2023-04-26T07:19:18.465Z,98994.7
2023-04-26T07:20:18.825Z,98992.78
2023-04-26T07:21:20.144Z,98997.55
2023-04-26T07:22:20.484Z,98998.35
2023-04-26T07:23:20.958Z,98993.31
2023-04-26T07:24:21.201Z,98995.86
2023-04-26T07:25:21.786Z,98998.66
2023-04-26T07:26:23.436Z,98992.19
2023-04-26T07:27:23.026Z,98994.17
2023-04-26T07:28:23.250Z,98993.73
2023-04-26T07:29:23.665Z,98992.5
2023-04-26T07:30:24.190Z,98992.34
2023-04-26T07:31:24.536Z,98991.63
2023-04-26T07:32:25.076Z,98989.41
2023-04-26T07:33:25.615Z,98993.45
2023-04-26T07:34:25.855Z,98992.82
2023-04-26T07:35:26.377Z,98990.25
2023-04-26T07:35:31.179Z,98990.25
2023-04-26T07:35:36.295Z,98990.25
2023-04-26T07:35:42.957Z,98989.55
2023-04-26T07:35:54.353Z,98989.55
2023-04-26T07:35:58.244Z,98988.46
2023-04-26T07:37:07.089Z,98987.61
2023-04-26T07:38:07.577Z,98986.91
2023-04-26T07:39:08.973Z,98985.56
2023-04-26T07:40:09.703Z,98980
2023-04-26T07:41:08.992Z,98981.33
2023-04-26T07:42:09.361Z,98978.55
2023-04-26T07:43:09.761Z,98977.58
2023-04-26T07:44:10.488Z,98978.25
2023-04-26T07:45:11.894Z,98977.12
2023-04-26T07:46:11.318Z,98981.04
2023-04-26T07:47:14.762Z,98981.66
2023-04-26T07:48:12.319Z,98977.19
2023-04-26T07:49:13.459Z,98972.22
2023-04-26T07:50:13.354Z,98969.42
2023-04-26T07:51:14.084Z,98969.17
2023-04-26T07:52:14.234Z,98971.95
2023-04-26T07:53:14.595Z,98977.2
2023-04-26T07:54:15.129Z,98971.25
2023-04-26T07:55:17.593Z,98972.51
2023-04-26T07:56:15.951Z,98970.7
2023-04-26T07:57:16.461Z,98972.17
2023-04-26T07:58:16.775Z,98976.97
2023-04-26T07:59:17.310Z,98981.64
2023-04-26T08:00:18.864Z,98978.45
2023-04-26T08:01:18.140Z,98978.58
2023-04-26T08:02:21.593Z,98973.38
2023-04-26T08:03:22.752Z,98969.12
2023-04-26T08:05:28.236Z,98973.47
2023-04-26T08:06:28.409Z,98974.77
2023-04-26T08:07:28.823Z,98973.39
2023-04-26T08:08:29.334Z,98971.36
2023-04-26T08:09:30.072Z,98966.88
2023-04-26T08:10:30.438Z,98964.84
2023-04-26T08:11:30.655Z,98969.33
2023-04-26T08:12:31.105Z,98968.59
2023-04-26T08:13:31.526Z,98967.87
2023-04-26T08:14:31.937Z,98964.5
2023-04-26T08:15:32.606Z,98962.11
2023-04-26T08:16:32.884Z,98965.03
2023-04-26T08:17:33.527Z,98959.39
2023-04-26T08:18:33.937Z,98966.98
2023-04-26T08:19:34.237Z,98965.18
2023-04-26T08:20:34.859Z,98964.84
2023-04-26T08:21:35.270Z,98962.86
2023-04-26T08:22:35.767Z,98963.77
2023-04-26T08:23:36.290Z,98964.77
2023-04-26T08:24:36.622Z,98959.2
2023-04-26T08:25:37.042Z,98957.33
2023-04-26T08:26:37.382Z,98961.36
2023-04-26T08:27:38.182Z,98962.3
2023-04-26T08:28:38.609Z,98955.54
2023-04-26T08:29:38.932Z,98963.05
2023-04-26T08:30:39.320Z,98957.94
2023-04-26T08:31:39.842Z,98959.25
2023-04-26T08:32:40.372Z,98957.02
2023-04-26T08:33:40.719Z,98956.62
2023-04-26T08:34:41.187Z,98956.47
2023-04-26T08:35:41.553Z,98959.47
2023-04-26T08:36:42.363Z,98957.73
2023-04-26T08:37:42.644Z,98956.83
2023-04-26T08:38:43.147Z,98955.38
2023-04-26T08:39:43.470Z,98959.55
2023-04-26T08:40:46.613Z,98954.33
2023-04-26T08:42:48.712Z,98957.08
2023-04-26T08:43:48.925Z,98954.55
2023-04-26T08:44:48.635Z,98953.66
2023-04-26T08:45:48.980Z,98956.38
2023-04-26T08:47:57.099Z,98948.52
2023-04-26T08:49:59.411Z,98949.8
2023-04-26T08:50:59.622Z,98946.84
2023-04-26T08:52:00.244Z,98950
2023-04-26T08:52:59.900Z,98944.1
2023-04-26T08:54:03.429Z,98945.23
2023-04-26T08:55:03.648Z,98941.02
2023-04-26T08:56:04.785Z,98942.11
2023-04-26T08:57:03.958Z,98937.23
2023-04-26T08:58:04.784Z,98939.21
2023-04-26T08:59:04.082Z,98935.06
2023-04-26T09:00:05.868Z,98934.9
2023-04-26T09:01:05.936Z,98935.77
2023-04-26T09:02:06.649Z,98932.5
2023-04-26T09:03:06.651Z,98933.49
2023-04-26T09:04:07.534Z,98932.95
2023-04-26T09:05:07.980Z,98930.44
2023-04-26T09:06:07.704Z,98927.22
2023-04-26T09:07:08.456Z,98926.19
2023-04-26T09:08:08.901Z,98930.44
2023-04-26T09:09:09.466Z,98925
2023-04-26T09:10:10.149Z,98930.92
2023-04-26T09:11:09.383Z,98923.83
2023-04-26T09:12:09.247Z,98923.89
2023-04-26T09:13:09.608Z,98920.87
2023-04-26T09:14:09.841Z,98927.64
2023-04-26T09:15:11.052Z,98922.95
2023-04-26T09:16:10.861Z,98928.33
2023-04-26T09:18:23.423Z,98927.53
2023-04-26T09:19:16.046Z,98929.21
2023-04-26T09:21:21.057Z,98923.91
2023-04-26T09:23:23.905Z,98918.58
2023-04-26T09:24:23.954Z,98916.02
2023-04-26T09:25:29.508Z,98916.3
2023-04-26T09:26:27.007Z,98917.69
2023-04-26T09:27:41.255Z,98916.7
2023-04-26T09:28:28.852Z,98913.08
2023-04-26T09:29:29.252Z,98916.56
2023-04-26T09:30:30.626Z,98914.22
2023-04-26T09:33:34.304Z,98907
2023-04-26T09:35:41.791Z,98908.31
2023-04-26T09:38:43.553Z,98906.98
2023-04-26T09:39:42.130Z,98909.91
2023-04-26T09:41:46.143Z,98906.14
2023-04-26T09:42:46.550Z,98906.41
2023-04-26T09:43:48.529Z,98908.78
2023-04-26T09:44:47.279Z,98909.28
2023-04-26T09:47:55.825Z,98907.72
2023-04-26T09:49:02.164Z,98908.04
2023-04-26T09:50:00.365Z,98906.95
2023-04-26T09:51:10.301Z,98904.19
2023-04-26T09:52:07.027Z,98900.39
2023-04-26T09:53:04.645Z,98899.38
2023-04-26T09:54:04.951Z,98901.88
2023-04-26T09:55:06.701Z,98899.02
2023-04-26T09:56:14.700Z,98901.26
2023-04-26T09:57:07.223Z,98898.89
2023-04-26T09:58:10.914Z,98898.77
2023-04-26T09:59:08.369Z,98903.52
2023-04-26T10:00:09.429Z,98900.38
2023-04-26T10:01:10.345Z,98901
2023-04-26T10:02:15.699Z,98896.91
2023-04-26T10:03:13.990Z,98903.2
2023-04-26T10:04:14.108Z,98902.55
2023-04-26T10:05:14.550Z,98902.05
2023-04-26T10:06:14.652Z,98897.58
2023-04-26T10:07:15.796Z,98897.56
2023-04-26T10:08:15.462Z,98896.14
2023-04-26T10:09:15.602Z,98893.02
2023-04-26T10:10:16.884Z,98894.05
2023-04-26T10:11:18.019Z,98892.78
2023-04-26T10:12:18.811Z,98893.45
2023-04-26T10:13:18.598Z,98891.4
2023-04-26T10:14:17.790Z,98890
2023-04-26T10:15:19.031Z,98890.27
2023-04-26T10:16:18.959Z,98889.75
2023-04-26T10:17:19.582Z,98888.91
2023-04-26T10:18:18.844Z,98883.08
2023-04-26T10:19:20.205Z,98887.77
2023-04-26T10:20:22.222Z,98888.12
2023-04-26T10:21:34.013Z,98884.09
2023-04-26T10:22:24.903Z,98885.35
2023-04-26T10:23:24.183Z,98887.06
2023-04-26T10:24:24.001Z,98881.45
2023-04-26T10:25:35.253Z,98878.47
2023-04-26T10:45:28.426Z,98878.2
2023-04-26T10:48:32.142Z,98883.39
2023-04-26T10:49:26.586Z,98878.97
2023-04-26T10:50:24.995Z,98879.29
2023-04-26T10:51:25.506Z,98878.55
2023-04-26T10:52:25.744Z,98878.44
2023-04-26T10:53:26.566Z,98877.61
2023-04-26T10:54:26.446Z,98873.92
2023-04-26T10:58:35.598Z,98880.12
2023-04-26T10:59:47.063Z,98875.99
2023-04-26T11:00:39.291Z,98885.12
2023-04-26T11:01:40.879Z,98885.42
2023-04-26T11:05:52.973Z,98882.92
2023-04-26T11:06:52.132Z,98878.97
2023-04-26T11:08:51.735Z,98879.86
2023-04-26T11:09:52.769Z,98883.57
2023-04-26T11:11:55.851Z,98877.22
2023-04-26T11:14:02.316Z,98871.17
2023-04-26T11:15:00.375Z,98876.21
2023-04-26T11:16:02.246Z,98873.55
2023-04-26T11:18:04.900Z,98877.25
2023-04-26T11:19:05.526Z,98882
2023-04-26T11:21:08.713Z,98885.32
2023-04-26T11:22:08.924Z,98881.88
2023-04-26T11:23:08.818Z,98884.22
2023-04-26T11:24:09.243Z,98877.88
2023-04-26T11:25:12.006Z,98880.62
2023-04-26T11:26:10.109Z,98882.67
2023-04-26T11:27:10.974Z,98884.11
2023-04-26T11:28:10.698Z,98875.97
2023-04-26T11:30:18.912Z,98875.72
2023-04-26T11:31:19.275Z,98875.14
2023-04-26T11:32:16.881Z,98882
2023-04-26T11:33:19.588Z,98877.02
2023-04-26T11:34:17.568Z,98876.44
2023-04-26T11:35:18.210Z,98875.38
2023-04-26T11:36:18.434Z,98878.64
2023-04-26T11:37:18.792Z,98876.38
2023-04-26T11:38:23.358Z,98880.23
2023-04-26T11:39:21.051Z,98878.81
2023-04-26T11:40:21.447Z,98881.83
2023-04-26T11:41:23.430Z,98877.8
2023-04-26T11:42:25.562Z,98881.68
2023-04-26T11:43:23.141Z,98882
2023-04-26T11:44:23.257Z,98879.66
2023-04-26T11:45:23.912Z,98879.41
2023-04-26T11:46:24.688Z,98882.02
2023-04-26T11:47:24.955Z,98875.7
2023-04-26T11:48:25.182Z,98876.86
2023-04-26T11:49:25.483Z,98876.34
2023-04-26T11:50:26.884Z,98874.47
2023-04-26T11:51:26.414Z,98875.75
2023-04-26T11:52:27.151Z,98872.61
2023-04-26T11:54:31.754Z,98872.57
2023-04-26T11:55:32.898Z,98871.09
2023-04-26T11:56:30.453Z,98869.69
2023-04-26T11:57:32.085Z,98868.89
2023-04-26T11:58:31.072Z,98869.14
2023-04-26T11:59:31.735Z,98867.8
2023-04-26T12:00:32.304Z,98868.43
2023-04-26T12:01:32.361Z,98865.04
2023-04-26T12:02:35.395Z,98870.67
2023-04-26T12:03:34.488Z,98868.62
2023-04-26T12:04:33.530Z,98870.54
2023-04-26T12:05:33.998Z,98867.62
2023-04-26T12:07:39.116Z,98862.84
2023-04-26T12:08:39.335Z,98863.44
2023-04-26T12:09:41.497Z,98864.84
2023-04-26T12:10:40.207Z,98862.84
2023-04-26T12:11:40.691Z,98865.62
2023-04-26T12:13:43.668Z,98860.09
2023-04-26T12:14:43.866Z,98864.8
2023-04-26T12:15:46.439Z,98853.05
2023-04-26T12:16:46.557Z,98858.12
2023-04-26T12:18:51.905Z,98851.36
2023-04-26T12:19:50.282Z,98850.46
2023-04-26T12:20:49.886Z,98852.08
2023-04-26T12:21:50.373Z,98854.18
2023-04-26T12:23:52.219Z,98848.91
2023-04-26T12:25:57.666Z,98852.41
2023-04-26T12:26:56.547Z,98851.82
2023-04-26T12:27:57.573Z,98853.89
2023-04-26T12:28:57.305Z,98850.02
2023-04-26T12:29:57.732Z,98847.52
2023-04-26T12:30:58.216Z,98846.05
2023-04-26T12:32:02.235Z,98849.69
2023-04-26T12:33:09.268Z,98850.34
2023-04-26T12:34:02.948Z,98847.06
2023-04-26T12:35:03.660Z,98841.81
2023-04-26T12:36:15.653Z,98843.41
2023-04-26T12:37:08.099Z,98842.78
2023-04-26T12:38:08.605Z,98842.19
2023-04-26T12:39:08.931Z,98841.73
2023-04-26T12:40:10.557Z,98838.3
2023-04-26T12:41:09.591Z,98845.84
2023-04-26T12:42:10.158Z,98844.55
2023-04-26T12:43:10.513Z,98841.06
2023-04-26T12:44:11.910Z,98844.45